Time;durP1;ratioP1;P1;durP2;ratioP2;P2;SDS_P1;SDS_P2;PMS_P1;PMS_P2;Temp;Humidity;BMP_temperature;BMP_pressure;BME280_temperature;BME280_humidity;BME280_pressure;Samples;Min_cycle;Max_cycle;Signal;HPM_P1;HPM_P2
2021/12/26 00:01:05;;;;;;;5.60;3.88;;;-0.30;70.60;;;;;;2089146;28;20024;-69
2021/12/26 00:02:06;;;;;;;5.70;3.63;;;-0.30;70.80;;;;;;2081699;28;20381;-69
2021/12/26 00:03:07;;;;;;;5.20;3.65;;;-0.30;70.60;;;;;;2080559;28;20021;-68
2021/12/26 00:04:13;;;;;;;5.70;3.80;;;-0.20;70.50;;;;;;2080824;28;20036;-70
2021/12/26 00:05:15;;;;;;;4.18;3.75;;;-0.30;70.60;;;;;;2080471;28;20021;-68
2021/12/26 00:06:19;;;;;;;5.00;3.90;;;-0.30;70.70;;;;;;2080129;28;20430;-68
2021/12/26 00:07:20;;;;;;;7.32;4.30;;;-0.30;70.60;;;;;;2080833;28;20104;-68
2021/12/26 00:08:20;;;;;;;4.25;3.40;;;-0.30;70.90;;;;;;2081374;28;20029;-69
2021/12/26 00:09:21;;;;;;;5.15;3.88;;;-0.30;70.70;;;;;;2080148;28;20033;-68
2021/12/26 00:10:24;;;;;;;4.53;3.65;;;-0.30;70.60;;;;;;2079867;28;20447;-69
2021/12/26 00:11:25;;;;;;;5.35;3.70;;;-0.30;70.90;;;;;;2081803;28;20021;-69
2021/12/26 00:12:26;;;;;;;4.95;3.45;;;-0.30;71.10;;;;;;2083008;28;20457;-69
2021/12/26 00:13:26;;;;;;;4.10;3.30;;;-0.30;71.10;;;;;;2077537;28;20426;-69
2021/12/26 00:14:27;;;;;;;5.55;3.90;;;-0.30;70.90;;;;;;2080811;28;20017;-68
2021/12/26 00:15:28;;;;;;;3.85;3.28;;;-0.30;70.70;;;;;;2088471;28;20040;-68
2021/12/26 00:16:28;;;;;;;4.05;3.30;;;-0.30;71.00;;;;;;2081453;28;20021;-68
2021/12/26 00:17:29;;;;;;;5.10;3.60;;;-0.30;71.20;;;;;;2077602;28;20030;-68
2021/12/26 00:18:29;;;;;;;3.40;3.10;;;-0.30;71.20;;;;;;2080612;28;20506;-68
2021/12/26 00:19:30;;;;;;;4.53;3.03;;;-0.30;71.40;;;;;;2080481;28;20052;-68
2021/12/26 00:20:32;;;;;;;4.20;3.47;;;-0.30;71.60;;;;;;2080469;28;20052;-69
2021/12/26 00:21:32;;;;;;;5.25;3.70;;;-0.30;71.60;;;;;;2080599;28;20462;-69
2021/12/26 00:22:34;;;;;;;5.60;3.70;;;-0.30;71.60;;;;;;2080955;28;20405;-69
2021/12/26 00:23:34;;;;;;;3.83;3.05;;;-0.20;71.70;;;;;;2080408;28;20053;-69
2021/12/26 00:24:35;;;;;;;3.75;3.15;;;-0.20;71.60;;;;;;2085065;28;20477;-69
2021/12/26 00:25:37;;;;;;;5.13;3.30;;;-0.20;72.30;;;;;;2087551;28;20087;-69
2021/12/26 00:26:37;;;;;;;3.80;3.47;;;-0.20;71.70;;;;;;2086869;28;20112;-69
2021/12/26 00:27:39;;;;;;;4.47;3.30;;;-0.20;71.80;;;;;;2082785;28;20083;-69
2021/12/26 00:28:40;;;;;;;6.15;3.42;;;-0.20;71.80;;;;;;2072587;28;20030;-68
2021/12/26 00:29:41;;;;;;;4.20;3.30;;;-0.20;71.80;;;;;;2078807;28;20491;-68
2021/12/26 00:30:42;;;;;;;4.22;3.15;;;-0.20;71.80;;;;;;2080734;28;20393;-68
2021/12/26 00:31:45;;;;;;;4.60;3.53;;;-0.20;72.00;;;;;;2080325;28;20087;-69
2021/12/26 00:32:47;;;;;;;3.40;3.10;;;-0.20;71.80;;;;;;2085568;28;20039;-69
2021/12/26 00:33:48;;;;;;;4.90;3.22;;;-0.20;71.70;;;;;;2082189;28;20547;-69
2021/12/26 00:34:51;;;;;;;4.50;3.28;;;-0.20;72.00;;;;;;2080650;28;20377;-69
2021/12/26 00:35:52;;;;;;;4.53;3.72;;;-0.20;72.10;;;;;;2084587;28;20048;-68
2021/12/26 00:36:53;;;;;;;4.72;3.20;;;-0.20;71.50;;;;;;2088378;28;20028;-68
2021/12/26 00:37:54;;;;;;;6.63;3.28;;;-0.20;72.10;;;;;;2088273;28;20035;-68
2021/12/26 00:38:55;;;;;;;4.20;3.30;;;-0.20;72.20;;;;;;2088773;28;20171;-68
2021/12/26 00:39:55;;;;;;;4.03;3.15;;;-0.20;72.00;;;;;;2088429;28;20040;-68
2021/12/26 00:40:56;;;;;;;5.20;3.72;;;-0.10;72.00;;;;;;2088721;28;20048;-68
2021/12/26 00:41:57;;;;;;;4.93;3.17;;;-0.20;72.80;;;;;;2088452;28;20082;-69
2021/12/26 00:42:58;;;;;;;7.10;3.25;;;-0.20;72.30;;;;;;2082821;28;20021;-68
2021/12/26 00:43:59;;;;;;;5.72;3.60;;;-0.20;72.60;;;;;;2084135;28;20024;-68
2021/12/26 00:44:59;;;;;;;3.35;3.05;;;-0.10;73.40;;;;;;2087579;28;20091;-69
2021/12/26 00:46:01;;;;;;;3.38;3.08;;;-0.10;72.20;;;;;;2080639;28;20021;-69
2021/12/26 00:47:02;;;;;;;5.78;3.70;;;-0.10;72.30;;;;;;2080684;28;20508;-68
2021/12/26 00:48:02;;;;;;;4.47;3.20;;;-0.10;72.40;;;;;;2080027;28;20416;-68
2021/12/26 00:49:04;;;;;;;4.55;3.38;;;-0.10;72.20;;;;;;2086357;28;20124;-68
2021/12/26 00:50:08;;;;;;;4.00;3.30;;;-0.10;72.30;;;;;;2088485;28;20048;-68
2021/12/26 00:51:09;;;;;;;3.47;3.13;;;-0.10;72.40;;;;;;2088609;28;20028;-69
2021/12/26 00:52:09;;;;;;;3.58;3.10;;;-0.10;72.80;;;;;;2088629;28;20100;-68
2021/12/26 00:53:11;;;;;;;3.67;3.30;;;0.00;73.10;;;;;;2088876;28;20080;-68
2021/12/26 00:54:12;;;;;;;4.07;3.40;;;-0.10;73.10;;;;;;2088551;28;20126;-68
2021/12/26 00:55:15;;;;;;;4.70;2.92;;;0.00;72.90;;;;;;2086870;28;20087;-69
2021/12/26 00:56:17;;;;;;;3.80;3.28;;;0.00;72.80;;;;;;2079921;28;20029;-68
2021/12/26 00:57:17;;;;;;;3.90;3.40;;;0.00;73.20;;;;;;2080306;28;20033;-68
2021/12/26 00:58:18;;;;;;;4.47;3.42;;;0.00;73.30;;;;;;2081380;28;21628;-68
2021/12/26 00:59:19;;;;;;;4.18;3.25;;;0.00;73.20;;;;;;2078130;28;20101;-68
2021/12/26 01:00:30;;;;;;;4.70;3.65;;;0.00;73.10;;;;;;2077902;28;20021;-68
2021/12/26 01:01:31;;;;;;;5.50;3.30;;;0.00;73.10;;;;;;2078641;28;20396;-68
2021/12/26 01:02:31;;;;;;;5.63;3.88;;;0.10;73.40;;;;;;2072056;28;20034;-68
2021/12/26 01:03:32;;;;;;;6.40;3.35;;;0.00;73.30;;;;;;2079011;28;20029;-68
2021/12/26 01:04:33;;;;;;;4.43;3.63;;;0.00;73.30;;;;;;2079791;28;20539;-68
2021/12/26 01:05:37;;;;;;;4.43;3.30;;;0.00;73.00;;;;;;2079946;28;20044;-68
2021/12/26 01:06:37;;;;;;;3.88;3.30;;;0.10;72.90;;;;;;2080094;28;20017;-69
2021/12/26 01:08:48;;;;;;;4.63;3.10;;;0.10;73.10;;;;;;2080217;28;20480;-69
2021/12/26 01:09:52;;;;;;;4.68;3.30;;;0.10;72.90;;;;;;2080241;28;20042;-69
2021/12/26 01:11:00;;;;;;;3.35;3.00;;;0.10;73.60;;;;;;2073764;28;20040;-69
2021/12/26 01:12:10;;;;;;;3.67;3.05;;;0.10;73.20;;;;;;2072230;28;20030;-68
2021/12/26 01:14:30;;;;;;;4.85;3.45;;;0.10;73.40;;;;;;2073626;28;20442;-68
2021/12/26 01:15:30;;;;;;;3.65;3.30;;;0.00;73.40;;;;;;2079208;28;20033;-68
2021/12/26 01:16:34;;;;;;;4.68;3.72;;;0.10;73.60;;;;;;2085273;28;20033;-68
2021/12/26 01:17:36;;;;;;;4.78;3.47;;;0.10;73.60;;;;;;2082987;28;20033;-68
2021/12/26 01:18:51;;;;;;;3.78;3.28;;;0.10;73.40;;;;;;2078978;28;20024;-68
2021/12/26 01:19:54;;;;;;;5.07;3.53;;;0.10;73.60;;;;;;2078168;28;20106;-68
2021/12/26 01:21:04;;;;;;;3.05;2.80;;;0.10;73.90;;;;;;2080964;28;20025;-68
2021/12/26 01:22:04;;;;;;;3.72;3.20;;;0.10;73.90;;;;;;2088178;28;20028;-68
2021/12/26 01:23:06;;;;;;;7.47;3.75;;;0.10;73.70;;;;;;2088140;28;20108;-68
2021/12/26 01:24:10;;;;;;;5.32;3.63;;;0.10;73.60;;;;;;2088408;28;20024;-69
2021/12/26 01:25:10;;;;;;;5.90;4.07;;;0.10;73.60;;;;;;2087605;28;20108;-69
2021/12/26 01:26:11;;;;;;;5.63;3.88;;;0.10;73.70;;;;;;2088333;28;20032;-68
2021/12/26 01:27:12;;;;;;;4.72;3.85;;;0.00;73.80;;;;;;2081669;28;20097;-68
2021/12/26 01:28:13;;;;;;;6.18;3.80;;;0.00;73.60;;;;;;2087965;28;20043;-68
2021/12/26 01:29:13;;;;;;;4.43;3.80;;;0.10;73.90;;;;;;2084708;28;20409;-69
2021/12/26 01:30:14;;;;;;;3.72;3.33;;;0.10;73.60;;;;;;2079928;28;20040;-69
2021/12/26 01:31:19;;;;;;;7.75;3.70;;;0.10;73.40;;;;;;2086013;28;20029;-69
2021/12/26 01:32:21;;;;;;;4.78;3.80;;;0.10;73.70;;;;;;2082682;28;20067;-69
2021/12/26 01:33:21;;;;;;;4.55;3.22;;;0.10;73.70;;;;;;2080149;28;20044;-68
2021/12/26 01:34:22;;;;;;;5.90;3.28;;;0.10;73.60;;;;;;2079711;28;20064;-68
2021/12/26 01:35:23;;;;;;;4.72;3.65;;;0.10;73.60;;;;;;2079148;28;20068;-68
2021/12/26 01:36:28;;;;;;;4.03;3.30;;;0.10;73.50;;;;;;2081867;28;20022;-68
2021/12/26 01:37:28;;;;;;;6.60;4.03;;;0.10;73.20;;;;;;2083034;28;20115;-68
2021/12/26 01:38:29;;;;;;;4.30;3.00;;;0.10;73.00;;;;;;2095523;28;20020;-69
2021/12/26 01:39:29;;;;;;;3.72;3.38;;;0.10;73.00;;;;;;2087534;28;20083;-69
2021/12/26 01:40:34;;;;;;;4.30;3.15;;;0.10;73.30;;;;;;2087411;28;20471;-69
2021/12/26 01:41:40;;;;;;;4.25;3.85;;;0.10;73.20;;;;;;2088108;28;20457;-69
2021/12/26 01:42:40;;;;;;;4.95;3.30;;;0.10;72.80;;;;;;2084828;28;20101;-68
2021/12/26 01:43:45;;;;;;;5.65;3.63;;;0.00;72.90;;;;;;2080334;28;20036;-68
2021/12/26 01:44:48;;;;;;;4.53;3.65;;;0.00;72.70;;;;;;2079492;28;20045;-68
2021/12/26 01:45:50;;;;;;;4.63;3.65;;;0.00;72.60;;;;;;2079225;28;20116;-68
2021/12/26 01:46:50;;;;;;;3.90;3.53;;;0.00;72.40;;;;;;2080355;28;20047;-68
2021/12/26 01:47:57;;;;;;;4.32;3.83;;;0.00;72.30;;;;;;2082106;28;20036;-68
2021/12/26 01:49:18;;;;;;;4.70;3.33;;;0.00;72.20;;;;;;2078013;28;20045;-68
2021/12/26 01:50:19;;;;;;;5.20;3.65;;;-0.10;71.80;;;;;;2074338;28;20037;-68
2021/12/26 01:51:20;;;;;;;6.50;3.40;;;-0.10;72.40;;;;;;2079816;28;20049;-69
2021/12/26 01:52:20;;;;;;;4.55;3.70;;;-0.10;72.60;;;;;;2078867;28;20029;-68
2021/12/26 01:53:24;;;;;;;5.90;3.90;;;-0.10;72.60;;;;;;2072822;28;20022;-68
2021/12/26 01:54:36;;;;;;;3.45;3.03;;;-0.20;72.30;;;;;;2087275;28;20521;-68
2021/12/26 01:55:46;;;;;;;3.80;3.20;;;-0.20;71.80;;;;;;2083179;28;20033;-68
2021/12/26 01:56:47;;;;;;;6.72;3.28;;;-0.20;72.20;;;;;;2077676;28;20500;-69
2021/12/26 01:57:49;;;;;;;6.60;3.25;;;-0.20;72.50;;;;;;2075893;28;20160;-68
2021/12/26 01:58:50;;;;;;;3.45;2.78;;;-0.20;72.80;;;;;;2085823;28;20025;-68
2021/12/26 01:59:50;;;;;;;4.13;3.28;;;-0.20;73.00;;;;;;2088248;28;20527;-68
2021/12/26 02:00:58;;;;;;;4.57;3.42;;;-0.20;73.10;;;;;;2088117;28;20033;-68
2021/12/26 02:01:59;;;;;;;3.47;3.17;;;-0.20;73.00;;;;;;2087708;28;20017;-68
2021/12/26 02:03:00;;;;;;;3.55;3.25;;;-0.20;73.00;;;;;;2078981;28;20032;-68
2021/12/26 02:04:02;;;;;;;4.22;3.58;;;-0.20;73.20;;;;;;2079850;28;20025;-68
2021/12/26 02:05:03;;;;;;;4.85;3.50;;;-0.20;73.50;;;;;;2082322;28;20037;-69
2021/12/26 02:06:06;;;;;;;3.72;3.40;;;-0.20;73.60;;;;;;2070970;28;20022;-68
2021/12/26 02:07:09;;;;;;;5.15;3.47;;;-0.20;73.60;;;;;;2086072;28;20017;-68
2021/12/26 02:08:10;;;;;;;3.88;3.38;;;-0.20;73.50;;;;;;2088224;28;20029;-68
2021/12/26 02:09:12;;;;;;;4.30;3.33;;;-0.20;73.40;;;;;;2087842;28;20060;-68
2021/12/26 02:10:13;;;;;;;5.68;3.85;;;-0.10;73.50;;;;;;2082917;28;20025;-69
2021/12/26 02:11:15;;;;;;;3.95;3.13;;;-0.20;74.40;;;;;;2078299;28;20037;-69
2021/12/26 02:12:15;;;;;;;4.15;3.65;;;-0.20;73.60;;;;;;2071950;28;20026;-68
2021/12/26 02:13:16;;;;;;;3.53;3.22;;;-0.20;73.30;;;;;;2076047;28;20499;-68
2021/12/26 02:14:29;;;;;;;4.72;3.50;;;-0.10;73.20;;;;;;2079759;28;20088;-68
2021/12/26 02:15:29;;;;;;;5.40;3.78;;;-0.20;72.50;;;;;;2077251;28;20204;-69
2021/12/26 02:16:30;;;;;;;4.55;3.50;;;-0.20;72.90;;;;;;2079889;28;20547;-69
2021/12/26 02:17:30;;;;;;;3.40;3.03;;;-0.20;73.40;;;;;;2077577;28;20038;-69
2021/12/26 02:18:31;;;;;;;4.03;3.25;;;-0.20;73.20;;;;;;2087552;28;20380;-69
2021/12/26 02:19:32;;;;;;;4.43;3.30;;;-0.20;73.40;;;;;;2079553;28;20049;-68
2021/12/26 02:22:03;;;;;;;3.78;3.38;;;-0.10;74.10;;;;;;2079375;28;20037;-68
2021/12/26 02:23:16;;;;;;;5.57;3.40;;;-0.10;74.80;;;;;;2078811;28;20033;-68
2021/12/26 02:25:32;;;;;;;6.05;3.83;;;-0.10;73.70;;;;;;2080333;28;20048;-68
2021/12/26 02:27:52;;;;;;;5.03;3.03;;;-0.10;73.40;;;;;;2075024;28;20108;-69
2021/12/26 02:28:53;;;;;;;5.43;3.70;;;-0.10;73.10;;;;;;2078038;28;20037;-68
2021/12/26 02:29:53;;;;;;;5.40;3.67;;;-0.20;73.30;;;;;;2082127;28;20037;-69
2021/12/26 02:30:56;;;;;;;4.18;3.70;;;-0.10;73.20;;;;;;2073855;28;20534;-68
2021/12/26 02:31:57;;;;;;;4.07;3.42;;;-0.10;73.20;;;;;;2079510;28;20536;-69
2021/12/26 02:33:03;;;;;;;6.10;3.80;;;-0.20;73.50;;;;;;2079576;28;21205;-69
2021/12/26 02:34:04;;;;;;;3.25;2.92;;;-0.20;73.60;;;;;;2077572;28;20457;-68
2021/12/26 02:35:05;;;;;;;5.70;3.75;;;-0.10;73.70;;;;;;2071070;28;20438;-68
2021/12/26 02:36:07;;;;;;;4.75;3.03;;;-0.10;73.80;;;;;;2076918;28;20044;-68
2021/12/26 02:37:07;;;;;;;6.65;3.83;;;-0.10;73.90;;;;;;2079765;28;20112;-68
2021/12/26 02:38:09;;;;;;;3.63;3.17;;;-0.10;74.10;;;;;;2079216;28;20483;-68
2021/12/26 02:39:10;;;;;;;4.28;3.35;;;-0.10;73.70;;;;;;2083970;28;20032;-68
2021/12/26 02:40:11;;;;;;;3.75;3.33;;;-0.10;73.80;;;;;;2088092;28;20025;-69
2021/12/26 02:41:12;;;;;;;3.42;3.05;;;-0.10;73.90;;;;;;2087910;28;20025;-68
2021/12/26 02:42:12;;;;;;;3.72;3.15;;;0.00;74.10;;;;;;2087831;28;20112;-68
2021/12/26 02:43:15;;;;;;;4.43;3.13;;;-0.10;73.70;;;;;;2079987;28;20500;-68
2021/12/26 02:44:16;;;;;;;4.30;2.92;;;-0.10;73.50;;;;;;2085319;28;20040;-68
2021/12/26 02:45:16;;;;;;;5.40;3.17;;;-0.10;73.40;;;;;;2083358;28;20049;-68
2021/12/26 02:46:17;;;;;;;5.70;3.08;;;0.00;73.20;;;;;;2079515;28;20024;-68
2021/12/26 02:47:50;;;;;;;3.75;3.45;;;0.00;73.20;;;;;;2079967;28;20025;-68
2021/12/26 02:48:52;;;;;;;5.57;3.50;;;-0.10;71.70;;;;;;2078312;28;20075;-69
2021/12/26 02:49:56;;;;;;;4.45;3.28;;;-0.10;72.40;;;;;;2084539;28;20558;-68
2021/12/26 02:50:57;;;;;;;4.03;3.17;;;-0.10;72.60;;;;;;2078416;28;20025;-69
2021/12/26 02:51:58;;;;;;;5.22;2.85;;;-0.10;72.70;;;;;;2081849;28;20029;-68
2021/12/26 02:53:01;;;;;;;3.95;3.20;;;-0.10;73.40;;;;;;2087884;28;20023;-69
2021/12/26 02:54:03;;;;;;;3.25;2.95;;;-0.10;72.60;;;;;;2087824;28;20028;-68
2021/12/26 02:55:05;;;;;;;4.90;3.47;;;-0.10;72.80;;;;;;2087749;28;20079;-68
2021/12/26 02:56:06;;;;;;;3.55;3.00;;;-0.10;73.00;;;;;;2070959;28;20026;-68
2021/12/26 02:57:06;;;;;;;4.07;3.22;;;-0.10;73.40;;;;;;2081293;28;20036;-68
2021/12/26 02:58:09;;;;;;;4.63;3.00;;;-0.10;72.90;;;;;;2087642;28;20025;-68
2021/12/26 02:59:10;;;;;;;3.13;2.83;;;-0.10;72.80;;;;;;2087820;28;20120;-69
2021/12/26 03:00:14;;;;;;;3.50;3.03;;;-0.10;72.70;;;;;;2079273;28;20021;-69
2021/12/26 03:01:19;;;;;;;3.67;2.97;;;-0.10;72.70;;;;;;2082368;28;20018;-68
2021/12/26 03:02:20;;;;;;;3.25;2.95;;;-0.10;72.40;;;;;;2082164;28;20104;-68
2021/12/26 03:03:20;;;;;;;3.13;2.83;;;-0.10;72.40;;;;;;2085405;28;20032;-68
2021/12/26 03:04:21;;;;;;;3.90;3.05;;;-0.10;72.40;;;;;;2090735;28;20028;-68
2021/12/26 03:05:25;;;;;;;4.35;3.00;;;-0.10;72.50;;;;;;2082856;28;20021;-69
2021/12/26 03:06:34;;;;;;;4.63;3.25;;;-0.10;72.40;;;;;;2082407;28;20028;-68
2021/12/26 03:07:35;;;;;;;5.65;3.20;;;-0.10;72.60;;;;;;2082381;28;20484;-68
2021/12/26 03:08:36;;;;;;;3.28;2.97;;;-0.10;72.60;;;;;;2082471;28;20377;-68
2021/12/26 03:09:47;;;;;;;5.28;3.35;;;-0.10;73.50;;;;;;2082279;28;20037;-69
2021/12/26 03:10:48;;;;;;;3.40;3.03;;;-0.10;72.60;;;;;;2079987;28;20025;-69
2021/12/26 03:11:49;;;;;;;3.35;3.05;;;-0.10;72.60;;;;;;2088249;28;20027;-68
2021/12/26 03:12:54;;;;;;;6.50;3.63;;;-0.10;72.90;;;;;;2079433;28;20097;-68
2021/12/26 03:13:54;;;;;;;4.57;3.03;;;-0.10;72.70;;;;;;2075264;28;20026;-68
2021/12/26 03:14:55;;;;;;;4.28;3.28;;;-0.10;73.10;;;;;;2078742;28;20446;-68
2021/12/26 03:15:56;;;;;;;4.53;3.00;;;-0.10;73.00;;;;;;2082002;28;20025;-68
2021/12/26 03:17:00;;;;;;;5.68;2.78;;;-0.10;73.00;;;;;;2082445;28;20097;-69
2021/12/26 03:18:01;;;;;;;4.47;2.85;;;-0.10;72.90;;;;;;2082174;28;20037;-69
2021/12/26 03:19:02;;;;;;;4.18;3.13;;;-0.10;72.30;;;;;;2081951;28;20033;-69
2021/12/26 03:20:11;;;;;;;3.13;2.83;;;-0.10;72.10;;;;;;2082377;28;20029;-69
2021/12/26 03:21:11;;;;;;;3.53;3.10;;;-0.10;71.90;;;;;;2082323;28;20053;-68
2021/12/26 03:22:12;;;;;;;3.55;3.20;;;-0.10;72.10;;;;;;2081483;28;20085;-68
2021/12/26 03:23:17;;;;;;;3.40;3.08;;;-0.10;71.70;;;;;;2080089;28;20121;-69
2021/12/26 03:24:17;;;;;;;3.78;3.10;;;-0.10;72.00;;;;;;2087346;28;20025;-69
2021/12/26 03:25:23;;;;;;;6.05;3.65;;;-0.10;72.60;;;;;;2089398;28;20028;-69
2021/12/26 03:26:23;;;;;;;4.75;2.70;;;-0.10;72.40;;;;;;2095542;28;20072;-69
2021/12/26 03:27:24;;;;;;;3.17;2.70;;;0.00;72.90;;;;;;2083561;28;20026;-68
2021/12/26 03:28:26;;;;;;;3.33;3.03;;;-0.10;72.60;;;;;;2090360;28;20021;-68
2021/12/26 03:29:26;;;;;;;2.75;2.50;;;-0.10;72.20;;;;;;2090634;28;20488;-68
2021/12/26 03:30:29;;;;;;;4.55;3.60;;;-0.10;72.60;;;;;;2090464;28;20369;-68
2021/12/26 03:31:29;;;;;;;3.42;3.13;;;0.00;72.50;;;;;;2090403;28;20033;-69
2021/12/26 03:32:30;;;;;;;3.70;3.30;;;-0.10;72.50;;;;;;2085766;28;20029;-69
2021/12/26 03:33:30;;;;;;;3.65;2.80;;;-0.10;72.10;;;;;;2082288;28;20484;-69
2021/12/26 03:34:31;;;;;;;4.25;2.97;;;-0.10;71.90;;;;;;2086588;28;20045;-68
2021/12/26 03:35:32;;;;;;;4.85;3.17;;;-0.10;72.10;;;;;;2083357;28;20022;-68
2021/12/26 03:36:33;;;;;;;3.33;3.03;;;-0.10;71.90;;;;;;2090281;28;20029;-68
2021/12/26 03:37:34;;;;;;;4.75;3.30;;;-0.10;71.70;;;;;;2090382;28;20106;-68
2021/12/26 03:38:36;;;;;;;4.25;3.33;;;-0.10;71.60;;;;;;2097569;28;20496;-69
2021/12/26 03:39:36;;;;;;;4.18;3.20;;;0.00;72.00;;;;;;2090873;28;20028;-69
2021/12/26 03:40:38;;;;;;;4.20;3.03;;;0.00;72.80;;;;;;2085701;28;20108;-68
2021/12/26 03:41:38;;;;;;;3.97;2.78;;;0.00;72.40;;;;;;2089916;28;20032;-68
2021/12/26 03:42:39;;;;;;;4.40;3.03;;;0.00;72.40;;;;;;2087091;28;20018;-69
2021/12/26 03:43:40;;;;;;;3.35;2.80;;;0.00;72.00;;;;;;2084268;28;20465;-69
2021/12/26 03:44:41;;;;;;;4.28;3.08;;;0.00;71.70;;;;;;2090445;28;20469;-69
2021/12/26 03:45:43;;;;;;;3.20;2.70;;;0.00;71.80;;;;;;2087375;28;20028;-69
2021/12/26 03:46:43;;;;;;;3.10;2.80;;;0.00;71.40;;;;;;2074017;28;20470;-68
2021/12/26 03:47:48;;;;;;;6.53;3.30;;;-0.10;71.30;;;;;;2082301;28;20564;-68
2021/12/26 03:48:49;;;;;;;2.90;2.67;;;-0.10;71.70;;;;;;2082005;28;20452;-68
2021/12/26 03:49:50;;;;;;;3.25;2.95;;;-0.10;71.60;;;;;;2081483;28;20396;-68
2021/12/26 03:50:53;;;;;;;4.32;3.33;;;-0.10;71.60;;;;;;2089080;28;20024;-68
2021/12/26 03:51:53;;;;;;;3.88;3.00;;;-0.10;72.00;;;;;;2090454;28;20025;-68
2021/12/26 03:52:57;;;;;;;3.83;2.95;;;-0.10;71.90;;;;;;2090185;28;20449;-69
2021/12/26 03:53:57;;;;;;;3.45;2.90;;;0.00;72.00;;;;;;2097676;28;20024;-69
2021/12/26 03:54:58;;;;;;;3.33;2.88;;;-0.10;72.10;;;;;;2097690;28;20110;-68
2021/12/26 03:56:00;;;;;;;3.42;3.13;;;-0.10;72.00;;;;;;2082512;28;20049;-68
2021/12/26 03:57:00;;;;;;;2.97;2.67;;;-0.10;71.80;;;;;;2086666;28;20472;-68
2021/12/26 03:58:01;;;;;;;3.35;3.00;;;0.00;72.20;;;;;;2090197;28;20393;-68
2021/12/26 03:59:02;;;;;;;3.53;2.60;;;-0.10;71.60;;;;;;2090151;28;20086;-69
2021/12/26 04:00:05;;;;;;;4.43;2.83;;;-0.10;71.70;;;;;;2083832;28;20034;-69
2021/12/26 04:01:06;;;;;;;5.30;3.13;;;0.00;72.10;;;;;;2081871;28;20112;-69
2021/12/26 04:02:07;;;;;;;3.53;3.08;;;0.00;72.20;;;;;;2087191;28;20032;-68
2021/12/26 04:03:08;;;;;;;3.80;3.15;;;0.00;71.90;;;;;;2089103;28;20025;-68
2021/12/26 04:04:09;;;;;;;4.25;3.30;;;0.00;71.90;;;;;;2089588;28;20048;-69
2021/12/26 04:05:11;;;;;;;4.32;2.85;;;0.00;71.80;;;;;;2089150;28;20021;-68
2021/12/26 04:06:12;;;;;;;3.95;3.03;;;0.00;71.50;;;;;;2088799;28;20025;-68
2021/12/26 04:07:12;;;;;;;3.60;2.92;;;0.00;71.50;;;;;;2089232;28;20028;-68
2021/12/26 04:08:13;;;;;;;3.33;3.08;;;0.00;71.90;;;;;;2089090;28;20534;-68
2021/12/26 04:09:14;;;;;;;3.30;2.70;;;0.00;71.80;;;;;;2088440;28;20027;-68
2021/12/26 04:10:16;;;;;;;3.83;3.42;;;0.00;71.80;;;;;;2090215;28;20448;-68
2021/12/26 04:11:16;;;;;;;3.85;3.15;;;0.00;72.00;;;;;;2082669;28;20033;-68
2021/12/26 04:12:20;;;;;;;3.45;3.10;;;0.00;71.90;;;;;;2085133;28;20029;-69
2021/12/26 04:13:21;;;;;;;3.40;3.10;;;0.00;72.00;;;;;;2075272;28;20038;-69
2021/12/26 04:14:21;;;;;;;3.28;2.63;;;0.00;72.00;;;;;;2076286;28;20108;-69
2021/12/26 04:15:24;;;;;;;4.88;3.00;;;0.00;71.70;;;;;;2079411;28;20423;-68
2021/12/26 04:16:24;;;;;;;3.30;2.95;;;0.00;71.60;;;;;;2080557;28;20057;-68
2021/12/26 04:17:25;;;;;;;3.55;2.63;;;0.00;71.60;;;;;;2077543;28;20088;-68
2021/12/26 04:18:25;;;;;;;4.15;3.08;;;0.00;71.00;;;;;;2083801;28;20035;-68
2021/12/26 04:19:26;;;;;;;3.10;2.65;;;0.00;71.30;;;;;;2080978;28;20018;-69
2021/12/26 04:20:28;;;;;;;3.60;3.28;;;0.00;71.90;;;;;;2080692;28;20034;-69
2021/12/26 04:21:29;;;;;;;4.07;3.10;;;0.00;71.70;;;;;;2080257;28;20083;-69
2021/12/26 04:22:29;;;;;;;3.58;3.00;;;0.00;71.70;;;;;;2080418;28;20022;-69
2021/12/26 04:23:30;;;;;;;5.13;3.15;;;-0.10;71.50;;;;;;2080540;28;20054;-69
2021/12/26 04:24:30;;;;;;;3.42;3.00;;;-0.10;71.40;;;;;;2079944;28;20737;-68
2021/12/26 04:25:31;;;;;;;2.83;2.63;;;0.00;71.70;;;;;;2076636;28;20025;-68
2021/12/26 04:26:32;;;;;;;4.22;2.85;;;-0.10;71.30;;;;;;2083147;28;20022;-68
2021/12/26 04:27:33;;;;;;;5.05;3.10;;;-0.10;71.50;;;;;;2079954;28;20028;-68
2021/12/26 04:28:34;;;;;;;3.55;2.88;;;-0.10;71.50;;;;;;2080268;28;20100;-68
2021/12/26 04:29:34;;;;;;;3.47;3.15;;;0.00;71.60;;;;;;2085993;28;20025;-68
2021/12/26 04:30:35;;;;;;;4.45;3.25;;;0.00;71.80;;;;;;2088734;28;20029;-68
2021/12/26 04:31:37;;;;;;;4.05;3.15;;;0.00;72.00;;;;;;2088668;28;20056;-68
2021/12/26 04:32:38;;;;;;;3.67;3.10;;;0.00;72.00;;;;;;2088670;28;20021;-68
2021/12/26 04:33:39;;;;;;;3.28;2.95;;;0.00;71.70;;;;;;2087157;28;20029;-68
2021/12/26 04:34:39;;;;;;;3.28;2.65;;;0.00;71.70;;;;;;2079250;28;20060;-68
2021/12/26 04:35:40;;;;;;;5.35;3.38;;;0.00;71.50;;;;;;2080058;28;20384;-68
2021/12/26 04:36:40;;;;;;;4.40;3.08;;;0.10;71.20;;;;;;2080324;28;20053;-69
2021/12/26 04:37:41;;;;;;;3.47;3.13;;;0.00;71.20;;;;;;2080540;28;20055;-68
2021/12/26 04:38:43;;;;;;;2.97;2.58;;;0.00;71.30;;;;;;2087752;28;20032;-69
2021/12/26 04:39:43;;;;;;;3.35;3.05;;;0.00;71.40;;;;;;2087941;28;20100;-68
2021/12/26 04:40:44;;;;;;;3.35;2.83;;;0.00;71.40;;;;;;2080085;28;20036;-68
2021/12/26 04:41:46;;;;;;;3.67;2.78;;;0.00;71.30;;;;;;2080571;28;20674;-68
2021/12/26 04:42:47;;;;;;;3.30;3.00;;;0.00;71.60;;;;;;2083642;28;20052;-69
2021/12/26 04:43:48;;;;;;;4.57;3.10;;;0.00;71.30;;;;;;2083444;28;20465;-68
2021/12/26 04:44:51;;;;;;;3.28;2.97;;;0.00;71.50;;;;;;2088874;28;20552;-68
2021/12/26 04:45:51;;;;;;;4.13;3.25;;;0.10;71.60;;;;;;2082416;28;20029;-68
2021/12/26 04:46:52;;;;;;;3.97;3.17;;;0.10;71.50;;;;;;2081584;28;20108;-68
2021/12/26 04:47:53;;;;;;;3.75;3.28;;;0.10;71.40;;;;;;2088559;28;20029;-68
2021/12/26 04:48:53;;;;;;;3.90;2.80;;;0.10;71.60;;;;;;2084241;28;20108;-68
2021/12/26 04:49:54;;;;;;;3.13;2.83;;;0.10;71.40;;;;;;2080607;28;20461;-68
2021/12/26 04:50:54;;;;;;;3.75;3.30;;;0.10;71.70;;;;;;2080147;28;20057;-68
2021/12/26 04:51:55;;;;;;;3.10;2.58;;;0.10;71.90;;;;;;2080423;28;20105;-68
2021/12/26 04:52:56;;;;;;;3.42;2.42;;;0.10;71.70;;;;;;2080375;28;20416;-68
2021/12/26 04:53:56;;;;;;;3.13;2.67;;;0.10;71.60;;;;;;2080094;28;20482;-68
2021/12/26 04:55:00;;;;;;;3.50;3.20;;;0.10;71.20;;;;;;2081526;28;20406;-68
2021/12/26 04:56:02;;;;;;;4.55;3.20;;;0.10;71.20;;;;;;2080590;28;20037;-68
2021/12/26 04:57:03;;;;;;;4.03;3.13;;;0.10;71.40;;;;;;2085232;28;20043;-68
2021/12/26 04:58:04;;;;;;;2.90;2.60;;;0.10;71.30;;;;;;2088415;28;20029;-68
2021/12/26 04:59:04;;;;;;;4.30;3.03;;;0.10;71.10;;;;;;2088486;28;20135;-68
2021/12/26 05:00:07;;;;;;;3.13;2.63;;;0.10;71.30;;;;;;2088643;28;20021;-69
2021/12/26 05:01:08;;;;;;;3.20;2.92;;;0.10;71.60;;;;;;2088014;28;20029;-69
2021/12/26 05:02:09;;;;;;;3.85;3.10;;;0.10;71.40;;;;;;2087807;28;20033;-69
2021/12/26 05:03:10;;;;;;;3.92;3.30;;;0.10;71.20;;;;;;2088775;28;20031;-69
2021/12/26 05:04:11;;;;;;;2.92;2.60;;;0.10;71.20;;;;;;2088020;28;20028;-68
2021/12/26 05:05:12;;;;;;;3.35;2.83;;;0.10;71.10;;;;;;2080335;28;20079;-68
2021/12/26 05:06:13;;;;;;;3.05;2.85;;;0.10;71.20;;;;;;2079346;28;20574;-68
2021/12/26 05:07:14;;;;;;;4.45;3.17;;;0.10;71.00;;;;;;2080483;28;20057;-69
2021/12/26 05:08:15;;;;;;;3.50;3.20;;;0.10;71.10;;;;;;2080221;28;20030;-69
2021/12/26 05:09:16;;;;;;;3.60;3.30;;;0.10;71.00;;;;;;2080249;28;20481;-68
2021/12/26 05:10:18;;;;;;;3.53;3.20;;;0.10;71.30;;;;;;2081882;28;21103;-68
2021/12/26 05:11:18;;;;;;;3.20;2.83;;;0.10;71.50;;;;;;2078969;28;20105;-68
2021/12/26 05:12:19;;;;;;;3.13;2.78;;;0.10;71.20;;;;;;2073865;28;20037;-68
2021/12/26 05:13:19;;;;;;;3.35;2.95;;;0.00;71.00;;;;;;2081750;28;20546;-68
2021/12/26 05:14:20;;;;;;;3.60;2.83;;;0.10;71.20;;;;;;2071945;28;20034;-68
2021/12/26 05:15:21;;;;;;;4.05;3.28;;;0.10;71.30;;;;;;2079936;28;20112;-69
2021/12/26 05:16:22;;;;;;;4.53;2.80;;;0.10;71.20;;;;;;2079655;28;20116;-68
2021/12/26 05:17:22;;;;;;;3.80;3.33;;;0.10;71.30;;;;;;2079531;28;20033;-69
2021/12/26 05:18:23;;;;;;;4.07;3.00;;;0.10;71.10;;;;;;2085990;28;20071;-68
2021/12/26 05:19:23;;;;;;;3.17;2.75;;;0.00;71.10;;;;;;2085762;28;20728;-68
2021/12/26 05:20:26;;;;;;;3.53;3.08;;;0.10;71.20;;;;;;2079541;28;20026;-68
2021/12/26 05:21:27;;;;;;;5.68;3.50;;;0.10;71.20;;;;;;2080044;28;20021;-68
2021/12/26 05:22:28;;;;;;;4.30;3.03;;;0.10;71.40;;;;;;2080275;28;20032;-68
2021/12/26 05:23:28;;;;;;;3.38;3.08;;;0.10;71.50;;;;;;2087790;28;20430;-68
2021/12/26 05:24:29;;;;;;;4.07;2.88;;;0.10;71.70;;;;;;2087956;28;20017;-68
2021/12/26 05:25:29;;;;;;;4.43;2.97;;;0.10;72.00;;;;;;2080592;28;20088;-68
2021/12/26 05:26:30;;;;;;;3.92;3.03;;;0.10;71.50;;;;;;2086225;28;20013;-69
2021/12/26 05:27:30;;;;;;;3.22;2.92;;;0.10;71.60;;;;;;2082024;28;20057;-69
2021/12/26 05:28:31;;;;;;;3.38;2.97;;;0.10;71.90;;;;;;2088285;28;20457;-69
2021/12/26 05:29:31;;;;;;;3.08;2.78;;;0.10;72.30;;;;;;2088412;28;20017;-69
2021/12/26 05:30:32;;;;;;;3.55;3.05;;;0.20;72.50;;;;;;2084775;28;20047;-68
2021/12/26 05:31:33;;;;;;;3.55;3.25;;;0.10;72.30;;;;;;2087388;28;20040;-68